createdAt,value
2022-12-25T00:02:08.275Z,13.30
2022-12-25T00:07:10.089Z,13.30
2022-12-25T00:12:11.944Z,13.40
2022-12-25T00:17:14.231Z,13.40
2022-12-25T00:22:16.720Z,13.40
2022-12-25T00:27:18.701Z,13.40
2022-12-25T00:32:49.049Z,13.40
2022-12-25T00:38:28.983Z,13.30
2022-12-25T00:43:32.719Z,13.30
2022-12-25T00:48:37.941Z,13.30
2022-12-25T01:00:19.262Z,13.20
2022-12-25T01:05:35.155Z,13.20
2022-12-25T01:10:39.701Z,13.10
2022-12-25T01:35:30.361Z,13.10
2022-12-25T01:40:42.604Z,13.10
2022-12-25T01:45:56.828Z,13.20
2022-12-25T01:51:14.491Z,13.20
2022-12-25T01:56:16.410Z,13.10
2022-12-25T02:01:18.432Z,13.00
2022-12-25T02:06:21.006Z,13.00
2022-12-25T02:11:41.645Z,13.00
2022-12-25T02:16:56.620Z,13.00
2022-12-25T02:22:15.334Z,12.90
2022-12-25T02:27:27.448Z,12.80
2022-12-25T02:32:36.270Z,12.80
2022-12-25T02:37:56.627Z,12.80
2022-12-25T02:43:20.449Z,12.80
2022-12-25T02:48:42.973Z,12.70
2022-12-25T02:54:05.528Z,12.80
2022-12-25T02:59:26.770Z,12.80
2022-12-25T03:04:48.882Z,12.90
2022-12-25T03:10:21.433Z,13.00
2022-12-25T03:15:42.587Z,13.00
2022-12-25T03:21:03.205Z,13.00
2022-12-25T03:26:24.164Z,13.10
2022-12-25T03:31:39.833Z,13.10
2022-12-25T03:37:12.603Z,13.10
2022-12-25T03:42:54.681Z,13.10
2022-12-25T03:48:12.694Z,12.90
2022-12-25T03:53:43.276Z,13.00
2022-12-25T03:59:22.964Z,12.90
2022-12-25T04:04:44.299Z,13.00
2022-12-25T04:10:04.878Z,12.90
2022-12-25T04:15:25.566Z,12.90
2022-12-25T04:20:45.927Z,13.00
2022-12-25T04:26:06.375Z,12.90
2022-12-25T04:31:26.769Z,12.80
2022-12-25T04:36:28.617Z,12.80
2022-12-25T04:41:30.486Z,12.80
2022-12-25T04:46:32.383Z,12.80
2022-12-25T04:51:34.236Z,12.80
2022-12-25T04:56:41.697Z,12.90
2022-12-25T05:01:47.396Z,12.90
2022-12-25T05:06:49.604Z,12.90
2022-12-25T05:11:51.445Z,12.90
2022-12-25T05:16:53.223Z,12.80
2022-12-25T05:21:55.288Z,12.80
2022-12-25T05:26:57.090Z,12.90
2022-12-25T05:31:58.954Z,12.90
2022-12-25T05:37:00.729Z,12.90
2022-12-25T05:42:02.615Z,12.90
2022-12-25T05:47:04.551Z,12.90
2022-12-25T05:52:06.470Z,12.90
2022-12-25T05:57:08.328Z,12.90
2022-12-25T06:02:10.372Z,12.90
2022-12-25T06:07:12.623Z,12.90
2022-12-25T06:12:14.470Z,12.80
2022-12-25T06:17:16.314Z,12.80
2022-12-25T06:22:18.149Z,12.80
2022-12-25T06:27:20.113Z,12.70
2022-12-25T06:32:21.894Z,12.80
2022-12-25T06:37:23.671Z,12.70
2022-12-25T06:42:25.519Z,12.70
2022-12-25T06:47:27.288Z,12.70
2022-12-25T06:52:29.076Z,12.70
2022-12-25T06:57:30.933Z,12.70
2022-12-25T07:02:33.856Z,12.70
2022-12-25T07:07:36.849Z,12.70
2022-12-25T07:12:38.696Z,12.60
2022-12-25T07:17:40.624Z,12.60
2022-12-25T07:22:42.430Z,12.50
2022-12-25T07:27:44.194Z,12.40
2022-12-25T07:32:50.139Z,12.20
2022-12-25T07:37:52.297Z,12.10
2022-12-25T07:42:54.087Z,12.00
2022-12-25T07:47:57.768Z,12.00
2022-12-25T07:53:07.454Z,12.00
2022-12-25T07:58:23.170Z,12.10
2022-12-25T08:03:32.292Z,12.00
2022-12-25T08:08:42.348Z,12.20
2022-12-25T08:13:54.867Z,12.10
2022-12-25T08:19:07.040Z,12.00
2022-12-25T08:24:13.762Z,12.00
2022-12-25T08:34:55.049Z,12.00
2022-12-25T08:45:34.677Z,12.00
2022-12-25T08:50:45.268Z,11.90
2022-12-25T08:55:49.237Z,11.90
2022-12-25T09:00:52.545Z,12.00
2022-12-25T09:05:58.035Z,11.90
2022-12-25T09:11:05.177Z,11.70
2022-12-25T09:16:13.712Z,11.80
2022-12-25T09:21:19.614Z,11.80
2022-12-25T09:26:26.009Z,11.80
2022-12-25T09:31:30.774Z,11.70
2022-12-25T09:36:33.916Z,11.60
2022-12-25T09:42:02.221Z,11.60
2022-12-25T09:47:37.208Z,11.50
2022-12-25T09:53:15.191Z,11.50
2022-12-25T09:58:21.444Z,11.50
2022-12-25T10:04:02.689Z,11.50
2022-12-25T10:09:25.924Z,11.60
2022-12-25T10:14:39.357Z,11.60
2022-12-25T10:19:57.443Z,11.60
2022-12-25T10:25:00.928Z,11.60
2022-12-25T10:30:18.099Z,11.50
2022-12-25T10:35:23.138Z,11.60
2022-12-25T10:40:30.410Z,11.70
2022-12-25T10:45:44.113Z,11.70
2022-12-25T10:50:49.142Z,11.70
2022-12-25T10:56:04.907Z,11.70
2022-12-25T11:01:12.709Z,11.80
2022-12-25T11:06:29.766Z,11.80
2022-12-25T11:11:36.191Z,11.80
2022-12-25T11:16:42.558Z,11.80
2022-12-25T11:21:57.580Z,11.80
2022-12-25T11:27:03.084Z,11.80
2022-12-25T11:32:21.301Z,11.80
2022-12-25T11:37:45.295Z,11.80
2022-12-25T11:43:18.806Z,11.90
2022-12-25T11:48:41.771Z,11.90
2022-12-25T11:53:47.888Z,11.70
2022-12-25T12:28:07.311Z,11.40
2022-12-25T12:33:22.115Z,11.10
2022-12-25T12:38:27.724Z,11.10
2022-12-25T12:44:23.105Z,11.10
2022-12-25T12:49:37.191Z,11.10
2022-12-25T13:00:28.178Z,11.10
2022-12-25T13:06:02.346Z,11.00
2022-12-25T13:11:24.747Z,11.10
2022-12-25T13:16:31.335Z,11.20
2022-12-25T13:21:35.220Z,11.30
2022-12-25T13:26:39.298Z,11.30
2022-12-25T13:31:42.348Z,11.30
2022-12-25T13:36:46.259Z,11.20
2022-12-25T13:42:12.012Z,11.30
2022-12-25T13:47:32.411Z,11.30
2022-12-25T13:52:44.465Z,11.40
2022-12-25T13:57:54.823Z,11.40
2022-12-25T14:02:56.940Z,11.20
2022-12-25T14:08:12.478Z,11.30
2022-12-25T14:13:16.262Z,11.30
2022-12-25T14:18:20.341Z,11.20
2022-12-25T14:23:22.383Z,11.30
2022-12-25T14:28:27.029Z,11.40
2022-12-25T14:33:35.278Z,11.40
2022-12-25T14:38:39.533Z,11.40
2022-12-25T14:43:52.567Z,11.50
2022-12-25T14:49:20.878Z,11.60
2022-12-25T14:54:23.600Z,11.60
2022-12-25T14:59:26.598Z,11.70
2022-12-25T15:04:29.607Z,11.80
2022-12-25T15:09:32.074Z,11.80
2022-12-25T15:14:36.407Z,11.80
2022-12-25T15:19:39.091Z,11.90
2022-12-25T15:24:41.114Z,12.00
2022-12-25T15:30:09.198Z,12.10
2022-12-25T15:35:05.581Z,12.30
2022-12-25T15:40:07.991Z,12.40
2022-12-25T15:45:30.542Z,12.50
2022-12-25T15:50:32.787Z,12.50
2022-12-25T15:55:34.755Z,12.60
2022-12-25T16:00:36.641Z,12.70
2022-12-25T16:05:38.502Z,12.70
2022-12-25T16:10:40.586Z,12.70
2022-12-25T16:15:42.448Z,12.70
2022-12-25T16:20:44.511Z,12.70
2022-12-25T16:25:46.622Z,12.80
2022-12-25T16:30:48.767Z,12.80
2022-12-25T16:35:52.550Z,12.80
2022-12-25T16:40:57.409Z,12.80
2022-12-25T16:45:59.381Z,12.80
2022-12-25T16:51:01.293Z,12.80
2022-12-25T16:56:11.698Z,12.80
2022-12-25T17:01:16.855Z,12.80
2022-12-25T17:06:24.862Z,12.80
2022-12-25T17:11:30.190Z,12.80
2022-12-25T17:16:37.549Z,12.80
2022-12-25T17:21:39.568Z,12.80
2022-12-25T17:26:43.695Z,12.70
2022-12-25T17:31:45.672Z,12.70
2022-12-25T17:36:47.993Z,12.80
2022-12-25T17:41:52.883Z,12.90
2022-12-25T17:46:54.878Z,12.90
2022-12-25T17:51:56.917Z,12.90
2022-12-25T17:56:58.799Z,12.80
2022-12-25T18:02:00.770Z,12.70
2022-12-25T18:07:03.430Z,12.70
2022-12-25T18:12:05.712Z,12.60
2022-12-25T18:17:07.564Z,12.60
2022-12-25T18:22:09.379Z,12.50
2022-12-25T18:27:11.315Z,12.50
2022-12-25T18:32:13.635Z,12.60
2022-12-25T18:37:15.425Z,12.50
2022-12-25T18:43:02.767Z,12.50
2022-12-25T18:48:06.315Z,12.50
2022-12-25T18:53:08.413Z,12.30
2022-12-25T18:58:10.638Z,12.30
2022-12-25T19:03:12.453Z,12.20
2022-12-25T19:08:14.545Z,12.10
2022-12-25T19:13:16.396Z,12.10
2022-12-25T19:18:18.256Z,12.00
2022-12-25T19:23:20.082Z,11.90
2022-12-25T19:28:22.030Z,11.80
2022-12-25T19:33:24.804Z,11.70
2022-12-25T19:38:26.677Z,11.60
2022-12-25T19:43:29.575Z,11.50
2022-12-25T19:48:32.715Z,11.40
2022-12-25T19:53:34.510Z,11.50
2022-12-25T19:58:46.904Z,11.50
2022-12-25T20:03:54.602Z,11.50
2022-12-25T20:09:00.892Z,11.50
2022-12-25T20:14:07.857Z,11.60
2022-12-25T20:19:14.717Z,11.60
2022-12-25T20:24:35.696Z,11.60
2022-12-25T20:29:59.760Z,11.70
2022-12-25T20:35:05.861Z,11.60
2022-12-25T21:29:53.901Z,11.60
2022-12-25T21:47:05.118Z,11.70
2022-12-25T21:52:08.076Z,11.60
2022-12-25T21:57:10.863Z,11.50
2022-12-25T22:02:13.754Z,11.60
2022-12-25T22:07:22.487Z,11.50
2022-12-25T22:12:46.602Z,11.40
2022-12-25T22:18:08.309Z,11.40
2022-12-25T22:23:16.715Z,11.40
2022-12-25T22:28:19.691Z,11.40
2022-12-25T22:33:25.875Z,11.40
2022-12-25T22:38:28.980Z,11.50
2022-12-25T22:44:06.318Z,11.50
2022-12-25T22:48:58.690Z,11.50
2022-12-25T22:54:03.767Z,11.60
2022-12-25T22:59:07.155Z,11.60
2022-12-25T23:04:12.184Z,11.60
2022-12-25T23:09:24.015Z,11.70
2022-12-25T23:14:50.388Z,11.60
2022-12-25T23:20:16.825Z,11.60
2022-12-25T23:25:41.472Z,11.60
2022-12-25T23:30:48.236Z,11.40
2022-12-25T23:35:53.657Z,11.30
2022-12-25T23:40:57.046Z,11.30
2022-12-25T23:46:02.952Z,11.30
2022-12-25T23:51:07.674Z,11.40
2022-12-25T23:56:11.132Z,11.40
